createdAt,value
2019-05-03T00:01:46.213Z,1.73
2019-05-03T00:04:14.066Z,2.40
2019-05-03T00:06:40.008Z,1.67
2019-05-03T00:09:07.455Z,2.23
2019-05-03T00:11:33.396Z,2.47
2019-05-03T00:13:59.360Z,2.03
2019-05-03T00:16:32.772Z,2.17
2019-05-03T00:19:00.961Z,1.63
2019-05-03T00:21:26.569Z,2.30
2019-05-03T00:23:52.540Z,1.47
2019-05-03T00:26:18.561Z,1.77
2019-05-03T00:28:44.499Z,2.37
2019-05-03T00:31:12.365Z,1.90
2019-05-03T00:33:38.900Z,1.33
2019-05-03T00:36:18.306Z,1.87
2019-05-03T00:38:44.357Z,1.67
2019-05-03T00:41:12.069Z,2.07
2019-05-03T00:43:38.279Z,2.57
2019-05-03T00:46:04.235Z,1.60
2019-05-03T00:48:30.208Z,1.57
2019-05-03T00:50:56.156Z,2.37
2019-05-03T00:53:22.506Z,2.13
2019-05-03T00:55:48.540Z,1.83
2019-05-03T00:58:14.518Z,1.60
2019-05-03T01:00:41.740Z,1.80
2019-05-03T01:03:07.836Z,1.93
2019-05-03T01:05:33.892Z,2.73
2019-05-03T01:08:01.846Z,1.90
2019-05-03T01:10:27.673Z,2.43
2019-05-03T01:12:53.605Z,2.27
2019-05-03T01:15:24.117Z,1.67
2019-05-03T01:17:50.075Z,2.00
2019-05-03T01:20:16.031Z,1.50
2019-05-03T01:22:42.497Z,1.83
2019-05-03T01:25:08.530Z,1.77
2019-05-03T01:27:34.496Z,1.90
2019-05-03T01:30:02.613Z,2.30
2019-05-03T01:32:30.427Z,1.97
2019-05-03T01:34:56.407Z,2.20
2019-05-03T01:37:22.770Z,1.70
2019-05-03T01:39:48.801Z,1.93
2019-05-03T01:42:14.962Z,1.87
2019-05-03T01:44:42.611Z,1.47
2019-05-03T01:47:13.594Z,2.33
2019-05-03T01:49:47.429Z,2.37
2019-05-03T01:52:24.312Z,1.43
2019-05-03T01:54:52.073Z,1.23
2019-05-03T01:57:18.135Z,1.53
2019-05-03T01:59:44.063Z,1.53
2019-05-03T02:02:29.659Z,2.20
2019-05-03T02:04:57.516Z,1.70
2019-05-03T02:07:23.454Z,1.90
2019-05-03T02:09:49.512Z,2.13
2019-05-03T02:12:15.619Z,2.07
2019-05-03T02:14:42.257Z,2.20
2019-05-03T02:17:08.317Z,2.23
2019-05-03T02:19:34.277Z,1.90
2019-05-03T02:22:00.257Z,1.43
2019-05-03T02:24:26.215Z,1.77
2019-05-03T02:26:52.927Z,1.70
2019-05-03T02:29:19.013Z,1.93
2019-05-03T02:31:44.966Z,1.50
2019-05-03T02:34:12.563Z,1.97
2019-05-03T02:36:38.756Z,1.60
2019-05-03T02:39:05.704Z,1.73
2019-05-03T02:41:31.641Z,2.80
2019-05-03T02:43:58.881Z,2.47
2019-05-03T02:46:45.379Z,1.73
2019-05-03T02:49:16.130Z,1.57
2019-05-03T02:51:42.074Z,1.63
2019-05-03T02:54:08.013Z,2.30
2019-05-03T02:56:35.723Z,1.93
2019-05-03T02:59:01.798Z,1.97
2019-05-03T03:01:27.763Z,1.47
2019-05-03T03:03:56.054Z,1.87
2019-05-03T03:06:21.538Z,2.50
2019-05-03T03:08:47.786Z,2.20
2019-05-03T03:11:15.561Z,1.80
2019-05-03T03:13:41.586Z,2.03
2019-05-03T03:16:07.526Z,2.43
2019-05-03T03:18:36.157Z,1.13
2019-05-03T03:21:01.455Z,1.67
2019-05-03T03:23:27.432Z,1.87
2019-05-03T03:25:55.657Z,2.23
2019-05-03T03:28:21.339Z,2.20
2019-05-03T03:30:48.737Z,1.80
2019-05-03T03:33:17.569Z,2.57
2019-05-03T03:35:42.798Z,2.00
2019-05-03T03:38:08.759Z,1.90
2019-05-03T03:40:35.814Z,1.83
2019-05-03T03:43:01.953Z,2.63
2019-05-03T03:45:27.994Z,1.50
2019-05-03T03:47:56.422Z,1.90
2019-05-03T03:50:21.784Z,1.33
2019-05-03T03:52:47.745Z,1.97
2019-05-03T03:55:15.940Z,1.77
2019-05-03T03:57:41.663Z,1.80
2019-05-03T04:00:07.718Z,1.77
2019-05-03T04:02:35.442Z,1.10
2019-05-03T04:05:05.549Z,1.83
2019-05-03T04:07:31.703Z,1.83
2019-05-03T04:09:57.673Z,1.47
2019-05-03T04:12:26.476Z,1.53
2019-05-03T04:14:56.041Z,2.47
2019-05-03T04:17:39.687Z,2.00
2019-05-03T04:20:06.038Z,1.87
2019-05-03T04:22:31.966Z,2.00
2019-05-03T04:24:57.927Z,2.27
2019-05-03T04:27:27.195Z,1.70
2019-05-03T04:29:51.733Z,1.80
2019-05-03T04:32:19.428Z,1.70
2019-05-03T04:34:45.671Z,1.80
2019-05-03T04:37:11.728Z,2.10
2019-05-03T04:39:37.685Z,1.70
2019-05-03T04:42:06.360Z,1.63
2019-05-03T04:44:31.583Z,1.83
2019-05-03T04:46:58.451Z,1.70
2019-05-03T04:49:26.232Z,1.40
2019-05-03T04:51:52.394Z,1.70
2019-05-03T04:54:25.316Z,1.60
2019-05-03T04:56:51.132Z,1.40
2019-05-03T04:59:17.226Z,1.57
2019-05-03T05:01:45.861Z,1.60
2019-05-03T05:04:11.109Z,1.83
2019-05-03T05:06:37.069Z,2.23
2019-05-03T05:09:05.027Z,1.53
2019-05-03T05:11:31.083Z,2.00
2019-05-03T05:13:57.047Z,2.23
2019-05-03T05:16:25.162Z,1.90
2019-05-03T05:19:07.949Z,1.27
2019-05-03T05:21:35.894Z,1.90
2019-05-03T05:24:05.490Z,2.63
2019-05-03T05:26:42.050Z,1.73
2019-05-03T05:29:09.909Z,2.10
2019-05-03T05:31:35.851Z,2.20
2019-05-03T05:34:01.785Z,1.47
2019-05-03T05:36:27.753Z,2.63
2019-05-03T05:38:55.243Z,1.77
2019-05-03T05:41:21.269Z,1.30
2019-05-03T05:43:47.234Z,1.83
2019-05-03T05:46:14.641Z,1.90
2019-05-03T05:48:51.318Z,1.23
2019-05-03T05:51:17.280Z,1.70
2019-05-03T05:53:44.726Z,1.33
2019-05-03T05:56:25.134Z,1.70
2019-05-03T05:58:55.680Z,1.50
2019-05-03T06:01:25.020Z,1.20
2019-05-03T06:03:51.108Z,1.17
2019-05-03T06:06:21.686Z,2.03
2019-05-03T06:08:55.160Z,1.57
2019-05-03T06:11:39.229Z,1.90
2019-05-03T06:14:07.202Z,1.77
2019-05-03T06:16:37.987Z,2.17
2019-05-03T06:19:17.584Z,2.13
2019-05-03T06:21:51.265Z,1.93
2019-05-03T06:24:27.700Z,1.30
2019-05-03T06:26:55.651Z,2.03
2019-05-03T06:29:21.680Z,1.77
2019-05-03T06:31:52.286Z,1.80
2019-05-03T06:34:18.258Z,1.77
2019-05-03T06:36:46.204Z,1.87
2019-05-03T06:39:12.163Z,1.80
2019-05-03T06:41:38.111Z,2.57
2019-05-03T06:44:04.420Z,1.40
2019-05-03T06:46:45.573Z,1.83
2019-05-03T06:49:11.811Z,1.13
2019-05-03T06:51:40.079Z,2.10
2019-05-03T06:54:05.720Z,2.80
2019-05-03T06:56:31.676Z,1.47
2019-05-03T06:58:57.779Z,1.70
2019-05-03T07:01:25.648Z,1.57
2019-05-03T07:04:02.381Z,1.30
2019-05-03T07:06:37.367Z,1.87
2019-05-03T07:08:59.983Z,1.93
2019-05-03T07:11:26.045Z,1.80
2019-05-03T07:13:51.995Z,1.40
2019-05-03T07:16:17.976Z,1.40
2019-05-03T07:18:45.510Z,1.80
2019-05-03T07:21:12.423Z,0.90
2019-05-03T07:23:38.375Z,1.57
2019-05-03T07:26:05.401Z,2.10
2019-05-03T07:28:44.467Z,1.60
2019-05-03T07:30:59.399Z,1.77
2019-05-03T07:33:29.555Z,1.30
2019-05-03T07:35:55.524Z,1.90
2019-05-03T07:38:21.551Z,1.50
2019-05-03T07:40:47.492Z,1.20
2019-05-03T07:43:14.859Z,0.90
2019-05-03T07:45:41.003Z,1.47
2019-05-03T07:48:06.946Z,1.27
2019-05-03T07:50:33.268Z,1.30
2019-05-03T07:52:59.865Z,0.97
2019-05-03T07:55:27.739Z,1.33
2019-05-03T07:57:55.705Z,1.90
2019-05-03T08:00:25.376Z,2.37
2019-05-03T08:02:51.559Z,1.23
2019-05-03T08:05:17.701Z,0.97
2019-05-03T08:07:44.465Z,1.40
2019-05-03T08:10:11.551Z,2.37
2019-05-03T08:12:37.605Z,1.13
2019-05-03T08:15:05.352Z,1.27
2019-05-03T08:17:31.428Z,1.17
2019-05-03T08:19:57.377Z,1.73
2019-05-03T08:22:25.440Z,1.77
2019-05-03T08:24:51.441Z,0.97
2019-05-03T08:27:17.391Z,1.17
2019-05-03T08:29:45.291Z,0.97
2019-05-03T08:32:30.676Z,1.30
2019-05-03T08:35:16.673Z,1.33
2019-05-03T08:37:47.764Z,1.10
2019-05-03T08:40:15.615Z,1.47
2019-05-03T08:42:41.688Z,1.07
2019-05-03T08:45:08.122Z,1.43
2019-05-03T08:47:34.519Z,1.40
2019-05-03T08:50:00.819Z,1.10
2019-05-03T08:52:27.269Z,0.90
2019-05-03T08:54:55.445Z,1.00
2019-05-03T08:57:21.489Z,1.20
2019-05-03T08:59:47.532Z,1.00
2019-05-03T09:02:16.506Z,1.60
2019-05-03T09:04:43.173Z,1.67
2019-05-03T09:07:09.209Z,1.60
2019-05-03T09:09:37.070Z,1.50
2019-05-03T09:12:04.739Z,1.90
2019-05-03T09:14:41.424Z,1.10
2019-05-03T09:16:59.329Z,1.03
2019-05-03T09:19:25.451Z,0.80
2019-05-03T09:21:51.515Z,1.20
2019-05-03T09:24:17.466Z,1.10
2019-05-03T09:26:44.906Z,1.23
2019-05-03T09:29:11.074Z,1.63
2019-05-03T09:31:37.010Z,1.33
2019-05-03T09:34:07.493Z,1.50
2019-05-03T09:36:30.868Z,1.13
2019-05-03T09:38:56.818Z,1.17
2019-05-03T09:41:22.752Z,1.00
2019-05-03T09:43:48.714Z,0.77
2019-05-03T09:46:14.810Z,0.97
2019-05-03T09:48:40.862Z,1.00
2019-05-03T09:51:06.927Z,1.07
2019-05-03T09:53:46.600Z,1.00
2019-05-03T09:56:12.545Z,1.07
2019-05-03T09:58:38.524Z,1.30
2019-05-03T10:01:06.199Z,1.20
2019-05-03T10:03:32.406Z,1.20
2019-05-03T10:05:58.352Z,1.00
2019-05-03T10:08:25.433Z,1.17
2019-05-03T10:11:02.410Z,1.00
2019-05-03T10:13:28.476Z,0.63
2019-05-03T10:15:54.993Z,0.97
2019-05-03T10:18:21.078Z,1.10
2019-05-03T10:20:47.019Z,0.90
2019-05-03T10:23:24.793Z,0.90
2019-05-03T10:25:50.852Z,1.30
2019-05-03T10:28:16.801Z,1.13
2019-05-03T10:30:44.936Z,0.70
2019-05-03T10:33:15.592Z,0.90
2019-05-03T10:35:41.670Z,1.10
2019-05-03T10:38:07.647Z,1.10
2019-05-03T10:40:35.565Z,1.10
2019-05-03T10:43:01.540Z,1.30
2019-05-03T10:45:28.101Z,0.97
2019-05-03T10:47:54.278Z,0.80
2019-05-03T10:50:20.234Z,1.00
2019-05-03T10:52:48.092Z,0.97
2019-05-03T10:55:15.934Z,1.03
2019-05-03T10:57:44.978Z,0.90
2019-05-03T11:00:39.345Z,0.90
2019-05-03T11:02:41.235Z,0.67
2019-05-03T11:05:07.189Z,0.90
2019-05-03T11:07:34.551Z,1.17
2019-05-03T11:10:00.710Z,0.60
2019-05-03T11:12:31.661Z,1.07
2019-05-03T11:14:57.620Z,1.10
2019-05-03T11:17:25.489Z,1.03
2019-05-03T11:19:51.439Z,0.80
2019-05-03T11:22:19.312Z,0.80
2019-05-03T11:24:45.594Z,0.70
2019-05-03T11:27:16.403Z,0.90
2019-05-03T11:29:42.367Z,0.60
2019-05-03T11:32:19.335Z,1.10
2019-05-03T11:35:04.572Z,0.90
2019-05-03T11:37:38.395Z,1.10
2019-05-03T11:40:05.099Z,0.60
2019-05-03T11:42:35.326Z,0.70
2019-05-03T11:45:01.455Z,0.80
2019-05-03T11:47:27.745Z,0.50
2019-05-03T11:49:54.646Z,0.87
2019-05-03T11:52:20.825Z,0.60
2019-05-03T11:54:46.867Z,0.90
2019-05-03T11:57:15.760Z,0.60
2019-05-03T11:59:41.871Z,0.50
2019-05-03T12:02:25.859Z,0.70
2019-05-03T12:04:52.049Z,0.60
2019-05-03T12:07:39.433Z,0.70
2019-05-03T12:10:13.343Z,1.20
2019-05-03T12:12:35.248Z,0.73
2019-05-03T12:15:01.291Z,0.60
2019-05-03T12:17:30.020Z,0.60
2019-05-03T12:19:58.085Z,0.60
2019-05-03T12:22:26.062Z,0.50
2019-05-03T12:24:52.479Z,0.80
2019-05-03T12:27:18.857Z,0.60
2019-05-03T12:29:44.870Z,0.90
2019-05-03T12:32:10.991Z,1.00
2019-05-03T12:34:36.943Z,1.13
2019-05-03T12:37:04.968Z,0.90
2019-05-03T12:39:30.914Z,1.03
2019-05-03T12:41:56.861Z,0.90
2019-05-03T12:44:24.694Z,0.83
2019-05-03T12:46:50.696Z,0.63
2019-05-03T12:49:16.664Z,0.60
2019-05-03T12:51:42.626Z,0.60
2019-05-03T12:54:08.593Z,1.00
2019-05-03T12:56:35.835Z,0.70
2019-05-03T12:59:06.377Z,0.83
2019-05-03T13:01:41.635Z,0.83
2019-05-03T13:04:09.936Z,0.70
2019-05-03T13:06:37.887Z,0.73
2019-05-03T13:09:05.577Z,0.80
2019-05-03T13:11:34.729Z,1.00
2019-05-03T13:14:01.069Z,0.80
2019-05-03T13:16:27.137Z,0.90
2019-05-03T13:18:55.163Z,0.80
2019-05-03T13:21:20.993Z,0.60
2019-05-03T13:23:46.936Z,0.90
2019-05-03T13:26:14.859Z,0.93
2019-05-03T13:28:40.752Z,0.83
2019-05-03T13:31:06.721Z,1.10
2019-05-03T13:33:34.608Z,0.60
2019-05-03T13:36:00.627Z,0.60
2019-05-03T13:38:26.584Z,0.60
2019-05-03T13:40:54.327Z,1.10
2019-05-03T13:43:20.468Z,0.87
2019-05-03T13:45:46.398Z,0.80
2019-05-03T13:48:12.417Z,0.77
2019-05-03T13:50:38.409Z,1.27
2019-05-03T13:53:04.902Z,0.93
2019-05-03T13:55:31.000Z,0.90
2019-05-03T13:57:56.980Z,0.80
2019-05-03T14:00:24.689Z,0.80
2019-05-03T14:02:50.792Z,0.60
2019-05-03T14:05:16.810Z,0.60
2019-05-03T14:07:44.567Z,0.70
2019-05-03T14:10:10.626Z,0.80
2019-05-03T14:12:36.665Z,0.77
2019-05-03T14:15:02.715Z,0.70
2019-05-03T14:17:28.779Z,0.70
2019-05-03T14:19:56.742Z,0.60
2019-05-03T14:22:24.916Z,0.80
2019-05-03T14:24:50.888Z,0.87
2019-05-03T14:27:17.246Z,1.23
2019-05-03T14:29:45.349Z,1.00
2019-05-03T14:32:11.169Z,0.57
2019-05-03T14:34:37.252Z,1.50
2019-05-03T14:37:04.605Z,0.93
2019-05-03T14:39:30.701Z,0.80
2019-05-03T14:41:56.772Z,0.83
2019-05-03T14:44:25.070Z,1.77
2019-05-03T14:46:50.701Z,0.90
2019-05-03T14:49:16.644Z,1.40
2019-05-03T14:51:42.591Z,1.10
2019-05-03T14:54:09.396Z,0.60
2019-05-03T14:56:37.338Z,0.60
2019-05-03T14:59:21.498Z,1.07
2019-05-03T15:01:52.319Z,1.33
2019-05-03T15:04:18.253Z,0.93
2019-05-03T15:06:46.029Z,0.70
2019-05-03T15:09:12.056Z,0.77
2019-05-03T15:11:38.035Z,0.80
2019-05-03T15:14:05.627Z,1.77
2019-05-03T15:16:31.776Z,1.00
2019-05-03T15:18:57.735Z,1.17
2019-05-03T15:21:25.219Z,0.93
2019-05-03T15:23:51.253Z,0.87
2019-05-03T15:26:17.200Z,1.03
2019-05-03T15:28:44.886Z,0.90
2019-05-03T15:31:11.019Z,0.87
2019-05-03T15:33:36.969Z,0.83
2019-05-03T15:36:04.687Z,0.60
2019-05-03T15:38:30.780Z,1.00
2019-05-03T15:40:56.713Z,1.27
2019-05-03T15:43:28.931Z,0.70
2019-05-03T15:46:02.597Z,1.17
2019-05-03T15:48:30.474Z,0.80
2019-05-03T15:50:56.505Z,0.83
2019-05-03T15:53:24.529Z,0.93
2019-05-03T15:55:50.302Z,1.30
2019-05-03T15:58:16.269Z,1.10
2019-05-03T16:00:44.522Z,1.00
2019-05-03T16:03:11.254Z,1.20
2019-05-03T16:05:37.462Z,1.13
2019-05-03T16:08:04.593Z,0.97
2019-05-03T16:10:30.713Z,0.80
2019-05-03T16:12:56.776Z,0.83
2019-05-03T16:15:24.442Z,1.17
2019-05-03T16:17:50.593Z,1.10
2019-05-03T16:20:16.565Z,1.33
2019-05-03T16:22:42.542Z,1.00
2019-05-03T16:25:08.992Z,0.70
2019-05-03T16:27:36.874Z,1.40
2019-05-03T16:30:04.717Z,0.60
2019-05-03T16:32:30.717Z,1.00
2019-05-03T16:34:56.673Z,1.07
2019-05-03T16:37:22.636Z,1.40
2019-05-03T16:39:48.612Z,0.97
2019-05-03T16:42:15.469Z,1.27
2019-05-03T16:44:41.553Z,0.80
2019-05-03T16:47:07.600Z,0.70
2019-05-03T16:49:35.187Z,0.80
2019-05-03T16:52:01.290Z,0.57
2019-05-03T16:54:27.244Z,1.00
2019-05-03T16:56:54.927Z,1.47
2019-05-03T16:59:21.072Z,0.90
2019-05-03T17:01:47.086Z,0.97
2019-05-03T17:04:29.908Z,1.00
2019-05-03T17:06:57.872Z,0.80
2019-05-03T17:09:40.861Z,1.20
2019-05-03T17:12:09.901Z,1.50
2019-05-03T17:14:35.946Z,1.07
2019-05-03T17:17:01.919Z,0.90
2019-05-03T17:19:27.991Z,0.77
2019-05-03T17:21:54.774Z,1.07
2019-05-03T17:24:20.833Z,1.00
2019-05-03T17:26:46.774Z,2.10
2019-05-03T17:29:12.750Z,0.80
2019-05-03T17:31:38.716Z,0.77
2019-05-03T17:34:05.551Z,0.90
2019-05-03T17:36:31.646Z,1.00
2019-05-03T17:38:59.538Z,1.13
2019-05-03T17:41:34.759Z,1.30
2019-05-03T17:44:02.797Z,1.13
2019-05-03T17:46:28.778Z,1.07
2019-05-03T17:48:54.819Z,1.33
2019-05-03T17:51:39.040Z,1.63
2019-05-03T17:54:25.130Z,1.07
2019-05-03T17:56:55.698Z,1.17
2019-05-03T17:59:24.417Z,1.07
2019-05-03T18:02:09.110Z,1.17
2019-05-03T18:04:54.962Z,1.33
2019-05-03T18:07:37.933Z,2.30
2019-05-03T18:10:04.815Z,0.80
2019-05-03T18:12:30.854Z,1.03
2019-05-03T18:14:58.718Z,1.73
2019-05-03T18:17:24.870Z,1.17
2019-05-03T18:19:50.931Z,1.00
2019-05-03T18:22:16.885Z,0.90
2019-05-03T18:24:42.870Z,0.50
2019-05-03T18:27:09.080Z,0.90
2019-05-03T18:29:35.119Z,0.80
2019-05-03T18:32:01.152Z,1.10
2019-05-03T18:34:27.130Z,1.40
2019-05-03T18:36:53.198Z,1.27
2019-05-03T18:39:19.183Z,1.07
2019-05-03T18:41:45.314Z,1.10
2019-05-03T18:44:14.790Z,0.90
2019-05-03T18:46:51.404Z,0.60
2019-05-03T18:49:17.531Z,1.10
2019-05-03T18:51:44.746Z,1.00
2019-05-03T18:54:10.818Z,1.43
2019-05-03T18:56:36.841Z,0.83
2019-05-03T18:59:04.952Z,0.97
2019-05-03T19:01:30.793Z,1.00
2019-05-03T19:03:58.687Z,1.67
2019-05-03T19:06:24.641Z,1.07
2019-05-03T19:09:08.750Z,1.37
2019-05-03T19:11:48.452Z,0.93
2019-05-03T19:14:22.341Z,1.50
2019-05-03T19:16:59.211Z,1.67
2019-05-03T19:19:27.069Z,0.97
2019-05-03T19:21:53.066Z,0.93
2019-05-03T19:24:19.193Z,1.07
2019-05-03T19:26:45.199Z,0.93
2019-05-03T19:29:11.229Z,1.30
2019-05-03T19:31:37.406Z,1.00
2019-05-03T19:34:03.371Z,1.07
2019-05-03T19:36:29.460Z,1.10
2019-05-03T19:38:55.464Z,1.50
2019-05-03T19:41:21.498Z,1.37
2019-05-03T19:43:47.459Z,1.30
2019-05-03T19:46:13.401Z,1.07
2019-05-03T19:48:39.366Z,0.87
2019-05-03T19:51:05.848Z,0.83
2019-05-03T19:53:33.911Z,0.80
2019-05-03T19:56:00.057Z,1.77
2019-05-03T19:58:26.008Z,2.03
2019-05-03T20:00:54.905Z,1.40
2019-05-03T20:03:29.305Z,1.27
2019-05-03T20:05:59.716Z,0.90
2019-05-03T20:08:27.628Z,1.53
2019-05-03T20:11:14.625Z,1.07
2019-05-03T20:13:40.443Z,1.50
2019-05-03T20:16:06.519Z,0.73
2019-05-03T20:18:32.562Z,0.77
2019-05-03T20:20:58.549Z,0.97
2019-05-03T20:23:25.119Z,0.90
2019-05-03T20:25:51.225Z,0.90
2019-05-03T20:28:17.181Z,1.10
2019-05-03T20:30:45.171Z,1.60
2019-05-03T20:33:11.027Z,1.07
2019-05-03T20:35:36.983Z,0.87
2019-05-03T20:38:04.468Z,1.10
2019-05-03T20:40:30.499Z,1.27
2019-05-03T20:43:01.265Z,1.67
2019-05-03T20:45:35.409Z,1.10
2019-05-03T20:48:02.412Z,1.00
2019-05-03T20:50:28.382Z,1.57
2019-05-03T20:52:54.973Z,1.33
2019-05-03T20:55:21.097Z,0.90
2019-05-03T20:57:47.061Z,0.90
2019-05-03T21:00:14.841Z,1.30
2019-05-03T21:02:50.689Z,1.17
2019-05-03T21:05:08.846Z,2.23
2019-05-03T21:07:35.208Z,1.37
2019-05-03T21:10:01.256Z,1.63
2019-05-03T21:12:31.383Z,1.43
2019-05-03T21:14:55.831Z,1.70
2019-05-03T21:17:39.952Z,1.43
2019-05-03T21:20:22.895Z,1.40
2019-05-03T21:22:48.853Z,1.07
2019-05-03T21:25:19.273Z,1.80
2019-05-03T21:27:45.306Z,1.10
2019-05-03T21:30:11.274Z,1.30
2019-05-03T21:32:37.243Z,1.40
2019-05-03T21:35:03.191Z,1.07
2019-05-03T21:37:30.948Z,1.63
2019-05-03T21:39:57.007Z,0.73
2019-05-03T21:42:23.099Z,1.70
2019-05-03T21:44:49.074Z,1.10
2019-05-03T21:47:25.792Z,1.63
2019-05-03T21:49:53.320Z,1.13
2019-05-03T21:52:19.316Z,1.53
2019-05-03T21:54:45.287Z,1.30
2019-05-03T21:57:11.337Z,2.50
2019-05-03T21:59:37.294Z,1.00
2019-05-03T22:02:05.024Z,0.93
2019-05-03T22:04:31.107Z,0.90
2019-05-03T22:06:57.085Z,0.90
2019-05-03T22:09:23.144Z,1.93
2019-05-03T22:11:51.961Z,1.00
2019-05-03T22:14:21.684Z,1.50
2019-05-03T22:16:52.421Z,1.30
2019-05-03T22:19:19.532Z,1.17
2019-05-03T22:21:55.168Z,0.97
2019-05-03T22:24:32.034Z,1.60
2019-05-03T22:27:04.890Z,1.43
2019-05-03T22:29:30.397Z,1.70
2019-05-03T22:31:56.429Z,1.50
2019-05-03T22:34:22.396Z,1.47
2019-05-03T22:36:48.336Z,1.10
2019-05-03T22:39:15.809Z,1.10
2019-05-03T22:41:41.833Z,1.00
2019-05-03T22:44:07.809Z,1.03
2019-05-03T22:46:33.792Z,0.93
2019-05-03T22:48:59.724Z,1.10
2019-05-03T22:51:25.694Z,1.20
2019-05-03T22:53:51.644Z,1.20
2019-05-03T22:56:17.616Z,1.20
2019-05-03T22:58:45.628Z,1.07
2019-05-03T23:01:11.412Z,1.30
2019-05-03T23:03:44.835Z,1.10
2019-05-03T23:06:20.397Z,0.93
2019-05-03T23:08:39.066Z,1.00
2019-05-03T23:11:05.292Z,0.90
2019-05-03T23:13:31.354Z,1.10
2019-05-03T23:15:57.319Z,1.47
2019-05-03T23:18:24.639Z,1.67
2019-05-03T23:20:55.352Z,1.40
2019-05-03T23:23:39.768Z,1.20
2019-05-03T23:26:05.705Z,0.90
2019-05-03T23:28:31.682Z,1.10
2019-05-03T23:30:57.717Z,1.10
2019-05-03T23:33:25.215Z,0.90
2019-05-03T23:35:51.329Z,1.40
2019-05-03T23:38:17.300Z,1.43
2019-05-03T23:40:44.755Z,1.43
2019-05-03T23:43:10.826Z,0.93
2019-05-03T23:45:36.875Z,1.27
2019-05-03T23:48:04.569Z,1.10
2019-05-03T23:50:30.703Z,1.00
2019-05-03T23:52:56.763Z,1.73
2019-05-03T23:55:27.646Z,2.27
2019-05-03T23:57:55.292Z,0.90
